createdAt,value
2019-03-31T00:01:12.165Z,0.0
2019-03-31T00:12:34.844Z,0.0
2019-03-31T00:23:19.977Z,0.0
2019-03-31T00:35:04.772Z,0.0
2019-03-31T00:47:13.576Z,0.0
2019-03-31T00:57:58.669Z,0.0
2019-03-31T01:08:45.757Z,0.0
2019-03-31T01:19:31.088Z,0.0
2019-03-31T01:32:03.464Z,0.0
2019-03-31T01:42:17.496Z,0.0
2019-03-31T01:53:03.357Z,0.0
2019-03-31T02:06:38.583Z,0.0
2019-03-31T02:16:50.842Z,0.0
2019-03-31T02:27:37.187Z,0.0
2019-03-31T02:37:51.457Z,0.0
2019-03-31T02:49:54.168Z,0.0
2019-03-31T03:00:39.173Z,0.0
2019-03-31T03:10:53.309Z,0.0
2019-03-31T03:22:27.647Z,0.0
2019-03-31T03:34:36.919Z,0.0
2019-03-31T03:44:50.996Z,0.0
2019-03-31T03:55:36.894Z,0.0
2019-03-31T04:06:22.415Z,0.0
2019-03-31T04:17:08.408Z,0.0
2019-03-31T04:28:32.360Z,0.0
2019-03-31T04:39:21.486Z,0.0
2019-03-31T04:50:48.014Z,0.0
2019-03-31T05:02:08.186Z,0.0
2019-03-31T05:12:55.439Z,0.0
2019-03-31T05:24:30.114Z,15.0
2019-03-31T05:34:44.646Z,25.0
2019-03-31T05:45:30.323Z,45.0
2019-03-31T05:56:16.034Z,70.0
2019-03-31T06:09:05.084Z,105.0
2019-03-31T06:22:19.400Z,100.0
2019-03-31T06:33:08.104Z,110.0
2019-03-31T06:43:22.307Z,150.0
2019-03-31T06:54:07.976Z,125.0
2019-03-31T07:04:22.594Z,210.0
2019-03-31T07:14:34.470Z,105.0
2019-03-31T07:25:16.153Z,95.0
2019-03-31T07:36:37.755Z,265.0
2019-03-31T07:48:22.827Z,190.0
2019-03-31T07:58:36.941Z,255.0
2019-03-31T08:09:22.677Z,190.0
2019-03-31T08:20:11.532Z,340.0
2019-03-31T08:30:57.429Z,405.0
2019-03-31T08:42:20.561Z,355.0
2019-03-31T08:53:06.734Z,170.0
2019-03-31T09:03:23.607Z,215.0
2019-03-31T09:14:46.186Z,300.0
2019-03-31T09:25:31.865Z,485.0
2019-03-31T09:37:00.918Z,1500.0
2019-03-31T09:51:32.062Z,670.0
2019-03-31T10:15:35.512Z,2130.0
2019-03-31T10:27:35.077Z,2120.0
2019-03-31T10:40:14.743Z,590.0
2019-03-31T12:34:33.232Z,1795.0
2019-03-31T13:23:56.118Z,2590.0
2019-03-31T13:34:41.606Z,2440.0
2019-03-31T13:48:01.375Z,1145.0
2019-03-31T14:00:06.076Z,2195.0
2019-03-31T14:10:23.789Z,2030.0
2019-03-31T14:21:10.343Z,1990.0
2019-03-31T14:33:08.779Z,1875.0
2019-03-31T14:43:20.930Z,1660.0
2019-03-31T14:54:08.661Z,1690.0
2019-03-31T15:04:20.866Z,1475.0
2019-03-31T15:15:06.395Z,380.0
2019-03-31T15:27:12.653Z,965.0
2019-03-31T15:38:35.349Z,465.0
2019-03-31T15:48:49.508Z,705.0
2019-03-31T15:59:34.571Z,195.0
2019-03-31T16:09:48.666Z,295.0
2019-03-31T16:24:33.776Z,220.0
2019-03-31T16:34:48.519Z,165.0
2019-03-31T16:46:09.207Z,140.0
2019-03-31T17:18:04.265Z,80.0
2019-03-31T17:51:31.847Z,20.0
2019-03-31T18:03:16.322Z,5.0
2019-03-31T18:14:10.173Z,0.0
2019-03-31T18:26:31.096Z,0.0
2019-03-31T18:38:41.711Z,0.0
2019-03-31T18:49:30.138Z,0.0
2019-03-31T19:00:35.248Z,0.0
2019-03-31T19:13:55.344Z,0.0
2019-03-31T19:24:04.252Z,0.0
2019-03-31T19:34:14.255Z,0.0
2019-03-31T19:44:59.982Z,0.0
2019-03-31T19:59:56.569Z,0.0
2019-03-31T20:11:26.367Z,0.0
2019-03-31T20:22:55.506Z,0.0
2019-03-31T20:36:18.984Z,0.0
2019-03-31T20:47:46.597Z,0.0
2019-03-31T20:58:32.977Z,0.0
2019-03-31T21:09:24.772Z,0.0
2019-03-31T21:19:36.639Z,0.0
2019-03-31T21:30:34.142Z,0.0
2019-03-31T21:40:47.778Z,0.0
2019-03-31T21:51:38.672Z,0.0
2019-03-31T22:04:14.732Z,0.0
2019-03-31T22:14:27.096Z,0.0
2019-03-31T22:25:30.373Z,0.0
2019-03-31T22:35:49.542Z,0.0
2019-03-31T22:46:03.206Z,0.0
2019-03-31T22:57:10.901Z,0.0
2019-03-31T23:07:25.775Z,0.0
2019-03-31T23:17:41.087Z,0.0
2019-03-31T23:27:54.584Z,0.0
2019-03-31T23:38:08.754Z,0.0
2019-03-31T23:48:23.047Z,0.0
2019-03-31T23:58:37.317Z,0.0
